createdAt,value
2019-03-24T00:00:48.614Z,60.50
2019-03-24T00:03:18.485Z,61.47
2019-03-24T00:05:49.670Z,61.67
2019-03-24T00:08:19.400Z,60.87
2019-03-24T00:10:49.116Z,62.13
2019-03-24T00:13:18.808Z,72.43
2019-03-24T00:15:48.500Z,68.60
2019-03-24T00:18:18.220Z,67.70
2019-03-24T00:20:47.917Z,67.50
2019-03-24T00:23:17.644Z,67.87
2019-03-24T00:25:48.463Z,68.53
2019-03-24T00:28:18.175Z,64.63
2019-03-24T00:30:47.852Z,65.07
2019-03-24T00:33:17.577Z,61.30
2019-03-24T00:35:47.290Z,62.80
2019-03-24T00:38:17.061Z,62.17
2019-03-24T00:40:46.800Z,64.50
2019-03-24T00:43:16.546Z,65.10
2019-03-24T00:45:46.262Z,60.43
2019-03-24T00:48:15.960Z,61.80
2019-03-24T00:50:45.691Z,63.10
2019-03-24T00:53:15.405Z,65.47
2019-03-24T00:55:45.151Z,66.60
2019-03-24T00:58:14.843Z,60.00
2019-03-24T01:00:46.433Z,61.80
2019-03-24T01:03:16.421Z,66.03
2019-03-24T01:05:46.541Z,65.83
2019-03-24T01:08:16.391Z,62.80
2019-03-24T01:10:46.159Z,55.53
2019-03-24T01:13:16.442Z,60.70
2019-03-24T01:15:47.983Z,59.87
2019-03-24T01:18:18.121Z,62.20
2019-03-24T01:20:47.815Z,61.27
2019-03-24T01:23:17.621Z,64.97
2019-03-24T01:25:47.401Z,61.53
2019-03-24T01:28:17.109Z,58.13
2019-03-24T01:30:46.809Z,64.93
2019-03-24T01:33:16.525Z,64.47
2019-03-24T01:35:46.235Z,66.30
2019-03-24T01:38:15.923Z,62.73
2019-03-24T01:40:45.655Z,65.17
2019-03-24T01:43:15.411Z,59.87
2019-03-24T01:45:45.178Z,59.43
2019-03-24T01:48:17.207Z,64.10
2019-03-24T01:50:46.937Z,59.00
2019-03-24T01:53:16.627Z,61.40
2019-03-24T01:55:46.353Z,65.23
2019-03-24T01:58:16.123Z,61.13
2019-03-24T02:00:45.823Z,57.93
2019-03-24T02:03:15.513Z,64.30
2019-03-24T02:05:45.312Z,60.60
2019-03-24T02:08:15.321Z,62.80
2019-03-24T02:10:45.325Z,59.20
2019-03-24T02:13:15.021Z,58.03
2019-03-24T02:15:44.832Z,61.43
2019-03-24T02:18:14.509Z,61.87
2019-03-24T02:20:44.303Z,59.07
2019-03-24T02:23:14.008Z,62.47
2019-03-24T02:25:43.752Z,66.53
2019-03-24T02:28:13.430Z,63.20
2019-03-24T02:30:43.153Z,67.33
2019-03-24T02:33:12.863Z,60.50
2019-03-24T02:35:42.550Z,63.07
2019-03-24T02:38:12.280Z,66.23
2019-03-24T02:40:42.049Z,65.67
2019-03-24T02:43:11.915Z,63.80
2019-03-24T02:45:41.575Z,63.27
2019-03-24T02:48:11.351Z,58.70
2019-03-24T02:50:41.078Z,61.63
2019-03-24T02:53:10.875Z,58.37
2019-03-24T02:55:40.600Z,61.83
2019-03-24T02:58:10.316Z,60.43
2019-03-24T03:00:39.995Z,57.07
2019-03-24T03:03:09.722Z,62.37
2019-03-24T03:05:39.439Z,61.97
2019-03-24T03:08:09.159Z,63.40
2019-03-24T03:10:38.887Z,63.53
2019-03-24T03:13:08.598Z,61.37
2019-03-24T03:15:38.280Z,55.87
2019-03-24T03:18:08.002Z,60.73
2019-03-24T03:20:37.774Z,63.07
2019-03-24T03:23:07.469Z,63.43
2019-03-24T03:25:37.159Z,62.50
2019-03-24T03:28:06.910Z,65.53
2019-03-24T03:30:36.614Z,63.23
2019-03-24T03:33:06.380Z,64.17
2019-03-24T03:35:36.183Z,59.77
2019-03-24T03:38:05.868Z,63.30
2019-03-24T03:40:35.690Z,66.63
2019-03-24T03:43:05.422Z,61.77
2019-03-24T03:45:35.108Z,65.60
2019-03-24T03:48:04.827Z,64.70
2019-03-24T03:50:34.598Z,62.57
2019-03-24T03:53:04.313Z,61.07
2019-03-24T03:55:34.040Z,62.83
2019-03-24T03:58:03.772Z,61.33
2019-03-24T04:00:34.932Z,66.03
2019-03-24T04:03:06.480Z,61.77
2019-03-24T04:05:36.385Z,61.40
2019-03-24T04:08:06.310Z,60.03
2019-03-24T04:10:36.072Z,63.50
2019-03-24T04:13:07.488Z,64.90
2019-03-24T04:15:37.402Z,60.87
2019-03-24T04:18:07.155Z,59.93
2019-03-24T04:20:36.837Z,60.77
2019-03-24T04:23:06.661Z,61.50
2019-03-24T04:25:36.377Z,62.67
2019-03-24T04:28:06.108Z,57.57
2019-03-24T04:30:35.875Z,57.67
2019-03-24T04:33:05.665Z,62.00
2019-03-24T04:35:36.708Z,56.80
2019-03-24T04:38:06.371Z,56.73
2019-03-24T04:40:36.119Z,58.53
2019-03-24T04:43:05.852Z,55.87
2019-03-24T04:45:35.561Z,59.07
2019-03-24T04:48:05.419Z,58.60
2019-03-24T04:50:35.103Z,55.47
2019-03-24T04:53:04.878Z,57.93
2019-03-24T04:55:34.654Z,55.73
2019-03-24T04:58:04.498Z,57.80
2019-03-24T05:00:39.115Z,56.87
2019-03-24T05:03:09.369Z,58.93
2019-03-24T05:05:39.354Z,56.33
2019-03-24T05:08:12.647Z,55.63
2019-03-24T05:10:42.595Z,60.40
2019-03-24T05:13:12.327Z,56.27
2019-03-24T05:15:42.062Z,54.30
2019-03-24T05:18:12.026Z,57.30
2019-03-24T05:20:42.030Z,57.60
2019-03-24T05:23:11.800Z,56.00
2019-03-24T05:25:41.464Z,57.33
2019-03-24T05:28:11.172Z,61.77
2019-03-24T05:30:40.890Z,61.30
2019-03-24T05:33:10.622Z,57.47
2019-03-24T05:35:40.321Z,56.60
2019-03-24T05:38:10.107Z,60.43
2019-03-24T05:40:39.825Z,59.57
2019-03-24T05:43:09.492Z,58.87
2019-03-24T05:45:39.199Z,58.13
2019-03-24T05:48:08.911Z,56.30
2019-03-24T05:50:38.610Z,57.43
2019-03-24T05:53:08.385Z,56.23
2019-03-24T05:55:38.093Z,61.40
2019-03-24T05:58:07.767Z,61.70
2019-03-24T06:00:37.490Z,55.03
2019-03-24T06:03:07.255Z,59.00
2019-03-24T06:05:36.879Z,56.80
2019-03-24T06:08:06.663Z,53.07
2019-03-24T06:10:36.445Z,53.63
2019-03-24T06:13:06.121Z,56.53
2019-03-24T06:15:35.845Z,63.63
2019-03-24T06:18:05.576Z,57.87
2019-03-24T06:20:35.317Z,57.87
2019-03-24T06:23:05.219Z,54.67
2019-03-24T06:25:35.108Z,59.80
2019-03-24T06:28:04.837Z,56.20
2019-03-24T06:30:34.483Z,54.40
2019-03-24T06:33:04.213Z,52.70
2019-03-24T06:35:33.915Z,55.53
2019-03-24T06:38:03.610Z,60.57
2019-03-24T06:40:33.290Z,55.30
2019-03-24T06:43:02.995Z,54.60
2019-03-24T06:45:32.707Z,55.10
2019-03-24T06:48:02.419Z,57.17
2019-03-24T06:50:32.133Z,53.60
2019-03-24T06:53:02.034Z,51.23
2019-03-24T06:55:31.731Z,48.70
2019-03-24T06:58:01.433Z,53.93
2019-03-24T07:00:31.171Z,54.77
2019-03-24T07:03:00.913Z,57.43
2019-03-24T07:05:30.605Z,54.90
2019-03-24T07:08:00.313Z,58.00
2019-03-24T07:10:30.005Z,58.20
2019-03-24T07:12:59.727Z,55.23
2019-03-24T07:15:29.442Z,56.10
2019-03-24T07:18:08.076Z,57.23
2019-03-24T07:20:30.573Z,53.90
2019-03-24T07:23:00.288Z,55.70
2019-03-24T07:25:30.067Z,56.33
2019-03-24T07:27:59.917Z,54.03
2019-03-24T07:30:29.695Z,57.20
2019-03-24T07:32:59.433Z,58.53
2019-03-24T07:35:29.165Z,60.37
2019-03-24T07:37:58.909Z,55.87
2019-03-24T07:40:28.644Z,55.77
2019-03-24T07:42:58.425Z,57.07
2019-03-24T07:45:28.177Z,58.50
2019-03-24T07:47:57.952Z,57.67
2019-03-24T07:50:27.645Z,51.13
2019-03-24T07:52:57.389Z,48.33
2019-03-24T07:55:27.093Z,44.87
2019-03-24T07:57:57.045Z,44.17
2019-03-24T08:00:34.585Z,43.40
2019-03-24T08:03:04.561Z,41.43
2019-03-24T08:05:34.338Z,42.70
2019-03-24T08:08:04.273Z,41.90
2019-03-24T08:10:33.979Z,44.13
2019-03-24T08:13:03.734Z,42.07
2019-03-24T08:15:33.513Z,41.60
2019-03-24T08:18:03.238Z,42.23
2019-03-24T08:20:36.055Z,42.00
2019-03-24T08:23:06.074Z,40.63
2019-03-24T08:25:35.949Z,39.83
2019-03-24T08:28:05.824Z,41.73
2019-03-24T08:30:37.531Z,39.37
2019-03-24T08:33:07.514Z,39.50
2019-03-24T08:35:37.225Z,40.40
2019-03-24T08:38:07.015Z,41.57
2019-03-24T08:40:36.753Z,41.27
2019-03-24T08:43:06.617Z,41.47
2019-03-24T08:45:36.362Z,38.23
2019-03-24T08:48:06.140Z,41.13
2019-03-24T08:50:35.809Z,35.97
2019-03-24T08:53:05.797Z,34.13
2019-03-24T08:55:35.740Z,39.47
2019-03-24T08:58:05.539Z,38.37
2019-03-24T09:00:35.199Z,39.53
2019-03-24T09:03:04.938Z,39.80
2019-03-24T09:05:34.650Z,41.07
2019-03-24T09:08:04.274Z,36.47
2019-03-24T09:10:33.976Z,36.47
2019-03-24T09:13:03.658Z,37.17
2019-03-24T09:15:33.310Z,36.90
2019-03-24T09:18:03.026Z,36.77
2019-03-24T09:20:41.259Z,35.73
2019-03-24T09:23:04.146Z,39.93
2019-03-24T09:25:33.993Z,37.47
2019-03-24T09:28:03.758Z,35.20
2019-03-24T09:30:35.442Z,36.70
2019-03-24T09:33:05.356Z,36.23
2019-03-24T09:35:35.195Z,40.07
2019-03-24T09:38:05.129Z,36.80
2019-03-24T09:40:35.899Z,37.00
2019-03-24T09:43:06.770Z,36.60
2019-03-24T09:45:36.513Z,36.87
2019-03-24T09:48:06.532Z,38.20
2019-03-24T09:50:36.693Z,34.27
2019-03-24T09:53:06.506Z,37.03
2019-03-24T09:55:36.171Z,35.60
2019-03-24T09:58:05.941Z,35.63
2019-03-24T10:00:35.657Z,35.63
2019-03-24T10:03:05.444Z,35.47
2019-03-24T10:05:35.148Z,34.80
2019-03-24T10:08:04.838Z,34.90
2019-03-24T10:10:34.564Z,36.93
2019-03-24T10:13:04.322Z,31.73
2019-03-24T10:15:33.990Z,35.93
2019-03-24T10:18:03.649Z,36.23
2019-03-24T10:20:33.365Z,36.07
2019-03-24T10:23:03.039Z,36.63
2019-03-24T10:25:32.732Z,36.20
2019-03-24T10:28:02.456Z,36.57
2019-03-24T10:30:32.163Z,35.37
2019-03-24T10:33:01.838Z,36.17
2019-03-24T10:35:31.571Z,40.50
2019-03-24T10:38:01.285Z,39.20
2019-03-24T10:40:31.024Z,36.63
2019-03-24T10:43:00.713Z,41.07
2019-03-24T10:45:30.434Z,39.43
2019-03-24T10:48:00.099Z,40.47
2019-03-24T10:50:29.789Z,38.93
2019-03-24T10:52:59.475Z,41.20
2019-03-24T10:55:29.151Z,40.00
2019-03-24T10:57:58.871Z,38.63
2019-03-24T11:00:42.323Z,36.70
2019-03-24T11:03:12.440Z,37.40
2019-03-24T11:05:42.193Z,35.37
2019-03-24T11:08:11.970Z,38.57
2019-03-24T11:10:41.647Z,37.90
2019-03-24T11:13:11.420Z,40.17
2019-03-24T11:15:41.083Z,39.53
2019-03-24T11:18:10.805Z,38.27
2019-03-24T11:20:40.739Z,37.53
2019-03-24T11:23:10.394Z,37.10
2019-03-24T11:25:40.059Z,35.83
2019-03-24T11:28:09.776Z,33.60
2019-03-24T11:30:39.427Z,32.10
2019-03-24T11:33:09.182Z,34.30
2019-03-24T11:35:39.734Z,37.07
2019-03-24T11:38:09.507Z,34.17
2019-03-24T11:40:39.241Z,38.27
2019-03-24T11:43:08.932Z,37.03
2019-03-24T11:45:38.603Z,33.83
2019-03-24T11:48:08.335Z,34.37
2019-03-24T11:50:38.040Z,33.50
2019-03-24T11:53:08.143Z,36.27
2019-03-24T11:55:37.830Z,34.97
2019-03-24T11:58:07.602Z,35.33
2019-03-24T12:00:39.628Z,36.77
2019-03-24T12:03:09.444Z,31.47
2019-03-24T12:05:39.175Z,34.97
2019-03-24T12:08:08.943Z,33.53
2019-03-24T12:10:38.639Z,39.47
2019-03-24T12:13:08.496Z,36.40
2019-03-24T12:15:38.253Z,36.03
2019-03-24T12:18:07.957Z,37.83
2019-03-24T12:20:37.807Z,37.57
2019-03-24T12:23:07.511Z,36.70
2019-03-24T12:25:37.194Z,38.40
2019-03-24T12:28:06.908Z,35.80
2019-03-24T12:30:36.579Z,36.07
2019-03-24T12:33:06.259Z,33.93
2019-03-24T12:35:35.984Z,33.53
2019-03-24T12:38:05.635Z,37.20
2019-03-24T12:40:35.336Z,35.67
2019-03-24T12:43:05.049Z,37.27
2019-03-24T12:45:34.713Z,36.47
2019-03-24T12:48:04.409Z,36.73
2019-03-24T12:50:34.107Z,35.30
2019-03-24T12:53:03.775Z,39.27
2019-03-24T12:55:33.596Z,38.73
2019-03-24T12:58:03.365Z,38.37
2019-03-24T13:00:40.520Z,37.63
2019-03-24T13:03:10.199Z,36.90
2019-03-24T13:05:39.918Z,36.90
2019-03-24T13:08:13.936Z,33.83
2019-03-24T13:10:43.896Z,31.50
2019-03-24T13:13:13.629Z,37.90
2019-03-24T13:15:43.317Z,31.97
2019-03-24T13:18:12.996Z,36.07
2019-03-24T13:20:42.683Z,34.53
2019-03-24T13:23:12.384Z,36.57
2019-03-24T13:25:42.075Z,35.37
2019-03-24T13:28:11.917Z,35.37
2019-03-24T13:30:41.897Z,36.80
2019-03-24T13:33:11.590Z,33.33
2019-03-24T13:35:41.266Z,34.40
2019-03-24T13:38:11.048Z,32.87
2019-03-24T13:40:40.724Z,32.60
2019-03-24T13:43:10.416Z,30.97
2019-03-24T13:45:40.093Z,35.70
2019-03-24T13:48:09.756Z,33.03
2019-03-24T13:50:39.507Z,30.87
2019-03-24T13:53:09.156Z,29.87
2019-03-24T13:55:38.841Z,34.20
2019-03-24T13:58:08.638Z,34.47
2019-03-24T14:00:38.422Z,33.53
2019-03-24T14:03:08.091Z,33.47
2019-03-24T14:05:37.822Z,33.33
2019-03-24T14:08:07.559Z,33.27
2019-03-24T14:10:37.258Z,29.87
2019-03-24T14:13:07.029Z,28.47
2019-03-24T14:15:36.730Z,32.20
2019-03-24T14:18:06.475Z,32.23
2019-03-24T14:20:43.420Z,31.53
2019-03-24T14:23:07.637Z,31.10
2019-03-24T14:25:37.388Z,30.90
2019-03-24T14:28:07.079Z,31.77
2019-03-24T14:30:44.470Z,30.03
2019-03-24T14:33:14.704Z,29.90
2019-03-24T14:35:44.418Z,31.03
2019-03-24T14:38:14.193Z,29.07
2019-03-24T14:40:44.063Z,28.20
2019-03-24T14:43:14.060Z,26.77
2019-03-24T14:45:43.781Z,26.03
2019-03-24T14:48:13.479Z,25.93
2019-03-24T14:50:53.581Z,23.37
2019-03-24T14:53:14.578Z,25.00
2019-03-24T14:55:44.298Z,25.57
2019-03-24T14:58:14.046Z,25.17
2019-03-24T15:00:44.162Z,26.83
2019-03-24T15:03:13.913Z,27.17
2019-03-24T15:05:43.606Z,28.07
2019-03-24T15:08:13.391Z,26.20
2019-03-24T15:10:43.107Z,26.73
2019-03-24T15:13:12.810Z,24.90
2019-03-24T15:15:42.593Z,25.90
2019-03-24T15:18:12.258Z,25.30
2019-03-24T15:20:41.997Z,29.60
2019-03-24T15:23:11.664Z,25.87
2019-03-24T15:25:41.394Z,24.73
2019-03-24T15:28:11.081Z,25.40
2019-03-24T15:30:40.851Z,27.80
2019-03-24T15:33:10.559Z,25.23
2019-03-24T15:35:40.251Z,23.27
2019-03-24T15:38:10.065Z,25.57
2019-03-24T15:40:39.763Z,24.83
2019-03-24T15:43:09.467Z,25.60
2019-03-24T15:45:39.225Z,25.67
2019-03-24T15:48:08.939Z,25.77
2019-03-24T15:50:38.648Z,24.27
2019-03-24T15:53:08.430Z,24.73
2019-03-24T15:55:38.129Z,24.30
2019-03-24T15:58:07.835Z,23.43
2019-03-24T16:00:43.198Z,23.27
2019-03-24T16:03:13.027Z,25.87
2019-03-24T16:05:42.761Z,22.97
2019-03-24T16:08:12.538Z,25.63
2019-03-24T16:10:42.266Z,24.87
2019-03-24T16:13:11.966Z,24.53
2019-03-24T16:15:41.648Z,22.90
2019-03-24T16:18:11.345Z,19.00
2019-03-24T16:20:41.064Z,22.20
2019-03-24T16:23:10.809Z,21.40
2019-03-24T16:25:40.517Z,21.27
2019-03-24T16:28:10.233Z,23.17
2019-03-24T16:30:39.950Z,16.67
2019-03-24T16:33:09.603Z,23.07
2019-03-24T16:35:39.307Z,22.13
2019-03-24T16:38:09.049Z,23.47
2019-03-24T16:40:38.754Z,19.20
2019-03-24T16:43:08.483Z,17.17
2019-03-24T16:45:38.160Z,19.60
2019-03-24T16:48:07.901Z,23.80
2019-03-24T16:50:37.604Z,22.87
2019-03-24T16:53:07.332Z,20.97
2019-03-24T16:55:37.107Z,21.87
2019-03-24T16:58:06.918Z,23.57
2019-03-24T17:00:36.680Z,22.77
2019-03-24T17:03:06.455Z,23.00
2019-03-24T17:05:36.183Z,20.93
2019-03-24T17:08:05.948Z,22.20
2019-03-24T17:10:35.641Z,21.23
2019-03-24T17:13:05.394Z,21.27
2019-03-24T17:15:35.168Z,22.40
2019-03-24T17:18:05.174Z,20.73
2019-03-24T17:20:34.874Z,21.40
2019-03-24T17:23:04.684Z,21.67
2019-03-24T17:25:34.768Z,21.33
2019-03-24T17:28:04.484Z,20.17
2019-03-24T17:30:34.366Z,21.83
2019-03-24T17:33:04.136Z,22.07
2019-03-24T17:35:33.882Z,21.00
2019-03-24T17:38:03.680Z,20.50
2019-03-24T17:40:38.775Z,19.97
2019-03-24T17:43:04.894Z,20.10
2019-03-24T17:45:34.772Z,19.33
2019-03-24T17:48:04.547Z,21.77
2019-03-24T17:50:34.349Z,20.77
2019-03-24T17:53:06.543Z,19.10
2019-03-24T17:55:36.027Z,19.77
2019-03-24T17:58:05.798Z,22.03
2019-03-24T18:00:55.367Z,19.57
2019-03-24T18:03:25.091Z,20.57
2019-03-24T18:05:54.860Z,21.23
2019-03-24T18:08:24.560Z,19.50
2019-03-24T18:10:54.268Z,19.37
2019-03-24T18:13:23.989Z,19.40
2019-03-24T18:15:53.661Z,18.93
2019-03-24T18:18:23.486Z,18.03
2019-03-24T18:20:53.182Z,18.47
2019-03-24T18:23:22.904Z,19.43
2019-03-24T18:25:52.640Z,16.87
2019-03-24T18:28:22.380Z,14.67
2019-03-24T18:30:52.106Z,16.90
2019-03-24T18:33:21.794Z,14.23
2019-03-24T18:35:51.513Z,17.77
2019-03-24T18:38:21.240Z,15.67
2019-03-24T18:40:50.932Z,15.83
2019-03-24T18:43:20.658Z,16.97
2019-03-24T18:45:50.355Z,16.70
2019-03-24T18:48:20.076Z,14.50
2019-03-24T18:50:49.776Z,12.93
2019-03-24T18:53:19.492Z,13.83
2019-03-24T18:55:49.255Z,14.90
2019-03-24T18:58:18.969Z,15.40
2019-03-24T19:00:48.674Z,14.53
2019-03-24T19:03:18.424Z,14.73
2019-03-24T19:05:48.117Z,14.23
2019-03-24T19:08:17.828Z,13.60
2019-03-24T19:10:47.540Z,14.10
2019-03-24T19:13:17.312Z,13.40
2019-03-24T19:15:47.021Z,14.20
2019-03-24T19:18:16.748Z,15.57
2019-03-24T19:20:46.428Z,14.53
2019-03-24T19:23:16.137Z,14.97
2019-03-24T19:25:47.050Z,13.83
2019-03-24T19:28:16.927Z,14.23
2019-03-24T19:30:46.599Z,13.80
2019-03-24T19:33:16.291Z,14.33
2019-03-24T19:35:45.983Z,14.27
2019-03-24T19:38:15.730Z,13.03
2019-03-24T19:40:45.440Z,14.07
2019-03-24T19:43:15.187Z,12.87
2019-03-24T19:45:44.897Z,11.17
2019-03-24T19:48:14.590Z,13.97
2019-03-24T19:50:50.095Z,14.03
2019-03-24T19:53:19.817Z,12.73
2019-03-24T19:55:49.603Z,16.00
2019-03-24T19:58:19.363Z,17.43
2019-03-24T20:00:49.118Z,15.13
2019-03-24T20:03:18.833Z,13.67
2019-03-24T20:05:48.543Z,13.53
2019-03-24T20:08:18.261Z,13.77
2019-03-24T20:10:49.206Z,13.80
2019-03-24T20:13:18.938Z,13.07
2019-03-24T20:15:48.661Z,12.80
2019-03-24T20:18:18.442Z,12.63
2019-03-24T20:20:48.176Z,12.23
2019-03-24T20:23:17.887Z,13.43
2019-03-24T20:25:47.596Z,14.10
2019-03-24T20:28:17.291Z,12.77
2019-03-24T20:30:46.969Z,15.37
2019-03-24T20:33:16.706Z,17.27
2019-03-24T20:35:46.491Z,18.27
2019-03-24T20:38:16.218Z,17.50
2019-03-24T20:40:45.924Z,17.40
2019-03-24T20:43:15.607Z,16.20
2019-03-24T20:45:45.274Z,15.37
2019-03-24T20:48:14.968Z,12.63
2019-03-24T20:50:44.695Z,15.83
2019-03-24T20:53:18.264Z,16.07
2019-03-24T20:55:45.798Z,15.30
2019-03-24T20:58:15.493Z,17.50
2019-03-24T21:00:45.191Z,18.97
2019-03-24T21:03:14.892Z,170.87
2019-03-24T21:05:44.639Z,17.17
2019-03-24T21:08:14.373Z,16.07
2019-03-24T21:10:44.073Z,16.07
2019-03-24T21:13:13.753Z,16.47
2019-03-24T21:15:43.425Z,17.07
2019-03-24T21:18:13.117Z,15.53
2019-03-24T21:20:42.816Z,16.07
2019-03-24T21:23:12.527Z,14.67
2019-03-24T21:25:42.213Z,15.93
2019-03-24T21:28:11.932Z,15.10
2019-03-24T21:30:42.312Z,14.33
2019-03-24T21:33:12.028Z,14.67
2019-03-24T21:35:41.712Z,13.33
2019-03-24T21:38:11.794Z,13.70
2019-03-24T21:40:41.482Z,11.97
2019-03-24T21:43:11.194Z,14.00
2019-03-24T21:45:40.878Z,16.07
2019-03-24T21:48:10.611Z,10.77
2019-03-24T21:50:40.318Z,12.23
2019-03-24T21:53:10.173Z,9.83
2019-03-24T21:55:39.878Z,12.27
2019-03-24T21:58:09.609Z,11.67
2019-03-24T22:00:39.280Z,10.23
2019-03-24T22:03:09.021Z,9.90
2019-03-24T22:05:38.827Z,11.07
2019-03-24T22:08:08.482Z,8.93
2019-03-24T22:10:38.210Z,9.43
2019-03-24T22:13:07.958Z,9.60
2019-03-24T22:15:37.761Z,10.17
2019-03-24T22:18:08.150Z,9.57
2019-03-24T22:20:48.520Z,9.47
2019-03-24T22:23:09.317Z,8.93
2019-03-24T22:25:38.999Z,8.43
2019-03-24T22:28:08.689Z,8.07
2019-03-24T22:30:38.385Z,7.80
2019-03-24T22:33:08.130Z,7.93
2019-03-24T22:35:37.840Z,8.03
2019-03-24T22:38:07.535Z,7.53
2019-03-24T22:40:37.224Z,6.97
2019-03-24T22:43:06.950Z,8.30
2019-03-24T22:45:36.665Z,7.47
2019-03-24T22:48:06.382Z,8.97
2019-03-24T22:50:36.150Z,7.13
2019-03-24T22:53:05.841Z,8.17
2019-03-24T22:55:35.547Z,8.30
2019-03-24T22:58:05.231Z,7.97
2019-03-24T23:00:45.031Z,7.70
2019-03-24T23:03:15.085Z,6.73
2019-03-24T23:05:44.833Z,6.97
2019-03-24T23:08:14.550Z,8.40
2019-03-24T23:10:44.287Z,6.53
2019-03-24T23:13:14.019Z,6.50
2019-03-24T23:15:43.707Z,7.33
2019-03-24T23:18:13.417Z,9.00
2019-03-24T23:20:43.122Z,7.30
2019-03-24T23:23:12.804Z,6.93
2019-03-24T23:25:42.606Z,6.13
2019-03-24T23:28:12.655Z,5.83
2019-03-24T23:30:42.349Z,11.00
2019-03-24T23:33:12.027Z,11.83
2019-03-24T23:35:41.750Z,8.03
2019-03-24T23:38:11.517Z,10.83
2019-03-24T23:40:41.185Z,7.73
2019-03-24T23:43:10.914Z,8.93
2019-03-24T23:45:40.573Z,6.53
2019-03-24T23:48:10.232Z,7.37
2019-03-24T23:50:39.981Z,7.23
2019-03-24T23:53:09.673Z,7.07
2019-03-24T23:55:39.351Z,5.50
2019-03-24T23:58:09.052Z,5.57
